sensor_id;sensor_type;location;lat;lon;timestamp;P1;durP1;ratioP1;P2;durP2;ratioP2
64816;SDS011;69411;45.656;11.740;2024-02-26T00:00:17;13.05;;;7.55;;
64816;SDS011;69411;45.656;11.740;2024-02-26T00:02:43;11.63;;;7.72;;
64816;SDS011;69411;45.656;11.740;2024-02-26T00:05:09;11.88;;;8.32;;
64816;SDS011;69411;45.656;11.740;2024-02-26T00:07:34;13.75;;;7.70;;
64816;SDS011;69411;45.656;11.740;2024-02-26T00:10:00;14.55;;;8.35;;
64816;SDS011;69411;45.656;11.740;2024-02-26T00:12:26;15.68;;;9.63;;
64816;SDS011;69411;45.656;11.740;2024-02-26T00:14:52;15.30;;;9.90;;
64816;SDS011;69411;45.656;11.740;2024-02-26T00:17:19;15.60;;;9.80;;
64816;SDS011;69411;45.656;11.740;2024-02-26T00:19:44;14.35;;;8.70;;
64816;SDS011;69411;45.656;11.740;2024-02-26T00:22:11;13.30;;;8.52;;
64816;SDS011;69411;45.656;11.740;2024-02-26T00:24:37;13.93;;;8.57;;
64816;SDS011;69411;45.656;11.740;2024-02-26T00:27:05;13.20;;;8.52;;
64816;SDS011;69411;45.656;11.740;2024-02-26T00:29:30;13.27;;;9.10;;
64816;SDS011;69411;45.656;11.740;2024-02-26T00:31:57;15.55;;;9.02;;
64816;SDS011;69411;45.656;11.740;2024-02-26T00:34:24;13.35;;;8.98;;
64816;SDS011;69411;45.656;11.740;2024-02-26T00:36:50;12.40;;;8.35;;
64816;SDS011;69411;45.656;11.740;2024-02-26T00:39:15;12.85;;;8.43;;
64816;SDS011;69411;45.656;11.740;2024-02-26T00:41:41;11.43;;;8.02;;
64816;SDS011;69411;45.656;11.740;2024-02-26T00:44:07;12.27;;;7.60;;
64816;SDS011;69411;45.656;11.740;2024-02-26T00:46:33;13.80;;;8.63;;
64816;SDS011;69411;45.656;11.740;2024-02-26T00:48:59;11.73;;;8.13;;
64816;SDS011;69411;45.656;11.740;2024-02-26T00:51:26;14.05;;;7.97;;
64816;SDS011;69411;45.656;11.740;2024-02-26T00:53:52;14.18;;;8.68;;
64816;SDS011;69411;45.656;11.740;2024-02-26T00:56:19;15.80;;;8.50;;
64816;SDS011;69411;45.656;11.740;2024-02-26T00:58:45;14.75;;;8.88;;
64816;SDS011;69411;45.656;11.740;2024-02-26T01:01:11;14.60;;;9.18;;
64816;SDS011;69411;45.656;11.740;2024-02-26T01:03:37;15.27;;;9.52;;
64816;SDS011;69411;45.656;11.740;2024-02-26T01:06:02;16.48;;;9.43;;
64816;SDS011;69411;45.656;11.740;2024-02-26T01:08:29;14.70;;;9.27;;
64816;SDS011;69411;45.656;11.740;2024-02-26T01:10:55;13.70;;;8.65;;
64816;SDS011;69411;45.656;11.740;2024-02-26T01:13:21;12.52;;;8.27;;
64816;SDS011;69411;45.656;11.740;2024-02-26T01:15:47;14.65;;;9.50;;
64816;SDS011;69411;45.656;11.740;2024-02-26T01:18:13;12.70;;;7.88;;
64816;SDS011;69411;45.656;11.740;2024-02-26T01:20:39;13.88;;;8.40;;
64816;SDS011;69411;45.656;11.740;2024-02-26T01:23:05;12.02;;;7.93;;
64816;SDS011;69411;45.656;11.740;2024-02-26T01:25:31;14.88;;;8.95;;
64816;SDS011;69411;45.656;11.740;2024-02-26T01:27:57;13.95;;;7.95;;
64816;SDS011;69411;45.656;11.740;2024-02-26T01:30:23;12.85;;;7.65;;
64816;SDS011;69411;45.656;11.740;2024-02-26T01:32:49;12.07;;;7.38;;
64816;SDS011;69411;45.656;11.740;2024-02-26T01:35:15;11.15;;;7.13;;
64816;SDS011;69411;45.656;11.740;2024-02-26T01:37:41;13.05;;;7.22;;
64816;SDS011;69411;45.656;11.740;2024-02-26T01:40:07;13.52;;;7.95;;
64816;SDS011;69411;45.656;11.740;2024-02-26T01:42:34;12.02;;;7.18;;
64816;SDS011;69411;45.656;11.740;2024-02-26T01:45:05;13.35;;;7.47;;
64816;SDS011;69411;45.656;11.740;2024-02-26T01:47:32;11.75;;;6.78;;
64816;SDS011;69411;45.656;11.740;2024-02-26T01:49:58;11.38;;;6.78;;
64816;SDS011;69411;45.656;11.740;2024-02-26T01:52:24;9.98;;;6.30;;
64816;SDS011;69411;45.656;11.740;2024-02-26T01:54:51;11.05;;;6.65;;
64816;SDS011;69411;45.656;11.740;2024-02-26T01:57:17;9.98;;;6.20;;
64816;SDS011;69411;45.656;11.740;2024-02-26T01:59:43;10.45;;;6.40;;
64816;SDS011;69411;45.656;11.740;2024-02-26T02:02:09;10.80;;;6.00;;
64816;SDS011;69411;45.656;11.740;2024-02-26T02:04:36;9.75;;;6.57;;
64816;SDS011;69411;45.656;11.740;2024-02-26T02:07:04;11.73;;;6.35;;
64816;SDS011;69411;45.656;11.740;2024-02-26T02:09:30;10.88;;;6.30;;
64816;SDS011;69411;45.656;11.740;2024-02-26T02:11:57;10.23;;;6.20;;
64816;SDS011;69411;45.656;11.740;2024-02-26T02:14:24;11.43;;;6.07;;
64816;SDS011;69411;45.656;11.740;2024-02-26T02:16:51;10.60;;;6.00;;
64816;SDS011;69411;45.656;11.740;2024-02-26T02:19:17;10.32;;;6.22;;
64816;SDS011;69411;45.656;11.740;2024-02-26T02:21:43;9.20;;;5.75;;
64816;SDS011;69411;45.656;11.740;2024-02-26T02:24:09;12.05;;;6.32;;
64816;SDS011;69411;45.656;11.740;2024-02-26T02:26:35;10.75;;;5.93;;
64816;SDS011;69411;45.656;11.740;2024-02-26T02:29:02;9.43;;;5.97;;
64816;SDS011;69411;45.656;11.740;2024-02-26T02:31:28;10.25;;;6.32;;
64816;SDS011;69411;45.656;11.740;2024-02-26T02:33:54;13.45;;;6.82;;
64816;SDS011;69411;45.656;11.740;2024-02-26T02:36:20;12.02;;;6.53;;
64816;SDS011;69411;45.656;11.740;2024-02-26T02:38:50;11.52;;;6.55;;
64816;SDS011;69411;45.656;11.740;2024-02-26T02:41:17;10.90;;;6.13;;
64816;SDS011;69411;45.656;11.740;2024-02-26T02:43:43;10.43;;;6.25;;
64816;SDS011;69411;45.656;11.740;2024-02-26T02:46:09;11.05;;;6.60;;
64816;SDS011;69411;45.656;11.740;2024-02-26T02:48:37;11.15;;;6.32;;
64816;SDS011;69411;45.656;11.740;2024-02-26T02:51:04;10.00;;;6.45;;
64816;SDS011;69411;45.656;11.740;2024-02-26T02:53:30;9.07;;;5.70;;
64816;SDS011;69411;45.656;11.740;2024-02-26T02:55:56;10.82;;;6.30;;
64816;SDS011;69411;45.656;11.740;2024-02-26T02:58:22;12.82;;;7.20;;
64816;SDS011;69411;45.656;11.740;2024-02-26T03:00:48;10.27;;;6.25;;
64816;SDS011;69411;45.656;11.740;2024-02-26T03:03:14;9.95;;;6.00;;
64816;SDS011;69411;45.656;11.740;2024-02-26T03:05:40;10.52;;;6.13;;
64816;SDS011;69411;45.656;11.740;2024-02-26T03:08:06;9.55;;;6.00;;
64816;SDS011;69411;45.656;11.740;2024-02-26T03:10:32;9.98;;;6.15;;
64816;SDS011;69411;45.656;11.740;2024-02-26T03:12:58;11.35;;;7.07;;
64816;SDS011;69411;45.656;11.740;2024-02-26T03:15:24;12.20;;;7.35;;
64816;SDS011;69411;45.656;11.740;2024-02-26T03:17:50;11.20;;;6.15;;
64816;SDS011;69411;45.656;11.740;2024-02-26T03:20:16;8.95;;;5.88;;
64816;SDS011;69411;45.656;11.740;2024-02-26T03:22:44;10.80;;;6.68;;
64816;SDS011;69411;45.656;11.740;2024-02-26T03:25:10;8.65;;;6.18;;
64816;SDS011;69411;45.656;11.740;2024-02-26T03:27:36;8.98;;;6.00;;
64816;SDS011;69411;45.656;11.740;2024-02-26T03:30:02;12.15;;;5.93;;
64816;SDS011;69411;45.656;11.740;2024-02-26T03:32:29;10.30;;;6.13;;
64816;SDS011;69411;45.656;11.740;2024-02-26T03:34:55;10.07;;;6.07;;
64816;SDS011;69411;45.656;11.740;2024-02-26T03:37:21;12.27;;;6.90;;
64816;SDS011;69411;45.656;11.740;2024-02-26T03:39:47;12.80;;;6.55;;
64816;SDS011;69411;45.656;11.740;2024-02-26T03:42:13;10.27;;;6.07;;
64816;SDS011;69411;45.656;11.740;2024-02-26T03:44:39;12.05;;;6.50;;
64816;SDS011;69411;45.656;11.740;2024-02-26T03:47:05;9.85;;;6.00;;
64816;SDS011;69411;45.656;11.740;2024-02-26T03:49:31;11.52;;;6.70;;
64816;SDS011;69411;45.656;11.740;2024-02-26T03:51:57;9.00;;;6.25;;
64816;SDS011;69411;45.656;11.740;2024-02-26T03:54:23;10.55;;;6.63;;
64816;SDS011;69411;45.656;11.740;2024-02-26T03:56:49;9.52;;;6.05;;
64816;SDS011;69411;45.656;11.740;2024-02-26T03:59:15;11.75;;;6.30;;
64816;SDS011;69411;45.656;11.740;2024-02-26T04:01:45;10.65;;;6.80;;
64816;SDS011;69411;45.656;11.740;2024-02-26T04:04:15;9.97;;;6.00;;
64816;SDS011;69411;45.656;11.740;2024-02-26T04:06:44;12.02;;;5.90;;
64816;SDS011;69411;45.656;11.740;2024-02-26T04:09:11;9.27;;;5.43;;
64816;SDS011;69411;45.656;11.740;2024-02-26T04:11:39;9.05;;;5.75;;
64816;SDS011;69411;45.656;11.740;2024-02-26T04:14:05;10.32;;;6.53;;
64816;SDS011;69411;45.656;11.740;2024-02-26T04:16:34;9.35;;;5.70;;
64816;SDS011;69411;45.656;11.740;2024-02-26T04:19:03;11.82;;;6.53;;
64816;SDS011;69411;45.656;11.740;2024-02-26T04:21:28;11.38;;;6.80;;
64816;SDS011;69411;45.656;11.740;2024-02-26T04:23:54;9.23;;;6.05;;
64816;SDS011;69411;45.656;11.740;2024-02-26T04:26:21;10.02;;;5.78;;
64816;SDS011;69411;45.656;11.740;2024-02-26T04:28:47;10.85;;;7.03;;
64816;SDS011;69411;45.656;11.740;2024-02-26T04:31:13;10.68;;;7.47;;
64816;SDS011;69411;45.656;11.740;2024-02-26T04:33:39;11.25;;;6.55;;
64816;SDS011;69411;45.656;11.740;2024-02-26T04:36:13;12.05;;;6.78;;
64816;SDS011;69411;45.656;11.740;2024-02-26T04:38:45;12.32;;;7.63;;
64816;SDS011;69411;45.656;11.740;2024-02-26T04:41:11;11.13;;;7.07;;
64816;SDS011;69411;45.656;11.740;2024-02-26T04:43:37;12.93;;;8.13;;
64816;SDS011;69411;45.656;11.740;2024-02-26T04:46:09;14.63;;;8.02;;
64816;SDS011;69411;45.656;11.740;2024-02-26T04:48:36;13.45;;;7.68;;
64816;SDS011;69411;45.656;11.740;2024-02-26T04:51:03;16.33;;;8.07;;
64816;SDS011;69411;45.656;11.740;2024-02-26T04:53:30;11.95;;;7.55;;
64816;SDS011;69411;45.656;11.740;2024-02-26T04:55:56;11.50;;;7.40;;
64816;SDS011;69411;45.656;11.740;2024-02-26T04:58:22;13.57;;;7.78;;
64816;SDS011;69411;45.656;11.740;2024-02-26T05:00:48;12.40;;;7.63;;
64816;SDS011;69411;45.656;11.740;2024-02-26T05:03:14;13.63;;;7.65;;
64816;SDS011;69411;45.656;11.740;2024-02-26T05:05:41;13.32;;;7.78;;
64816;SDS011;69411;45.656;11.740;2024-02-26T05:08:10;12.98;;;7.72;;
64816;SDS011;69411;45.656;11.740;2024-02-26T05:10:39;14.48;;;8.25;;
64816;SDS011;69411;45.656;11.740;2024-02-26T05:13:09;14.27;;;7.40;;
64816;SDS011;69411;45.656;11.740;2024-02-26T05:15:35;12.77;;;7.85;;
64816;SDS011;69411;45.656;11.740;2024-02-26T05:18:02;11.00;;;6.95;;
64816;SDS011;69411;45.656;11.740;2024-02-26T05:20:28;12.93;;;7.47;;
64816;SDS011;69411;45.656;11.740;2024-02-26T05:22:54;12.45;;;7.07;;
64816;SDS011;69411;45.656;11.740;2024-02-26T05:25:20;13.32;;;6.78;;
64816;SDS011;69411;45.656;11.740;2024-02-26T05:27:46;12.68;;;7.65;;
64816;SDS011;69411;45.656;11.740;2024-02-26T05:30:12;12.38;;;7.22;;
64816;SDS011;69411;45.656;11.740;2024-02-26T05:32:38;12.82;;;7.28;;
64816;SDS011;69411;45.656;11.740;2024-02-26T05:35:04;10.80;;;7.00;;
64816;SDS011;69411;45.656;11.740;2024-02-26T05:37:31;11.05;;;6.60;;
64816;SDS011;69411;45.656;11.740;2024-02-26T05:39:57;11.88;;;7.03;;
64816;SDS011;69411;45.656;11.740;2024-02-26T05:42:23;14.50;;;8.60;;
64816;SDS011;69411;45.656;11.740;2024-02-26T05:44:49;11.93;;;7.60;;
64816;SDS011;69411;45.656;11.740;2024-02-26T05:47:15;13.05;;;8.60;;
64816;SDS011;69411;45.656;11.740;2024-02-26T05:49:42;13.80;;;8.30;;
64816;SDS011;69411;45.656;11.740;2024-02-26T05:52:08;13.23;;;8.90;;
64816;SDS011;69411;45.656;11.740;2024-02-26T05:54:34;14.25;;;7.95;;
64816;SDS011;69411;45.656;11.740;2024-02-26T05:57:01;13.95;;;7.53;;
64816;SDS011;69411;45.656;11.740;2024-02-26T05:59:27;12.20;;;8.10;;
64816;SDS011;69411;45.656;11.740;2024-02-26T06:01:53;12.00;;;7.22;;
64816;SDS011;69411;45.656;11.740;2024-02-26T06:04:19;13.52;;;7.05;;
64816;SDS011;69411;45.656;11.740;2024-02-26T06:06:45;10.43;;;6.68;;
64816;SDS011;69411;45.656;11.740;2024-02-26T06:09:11;10.85;;;6.32;;
64816;SDS011;69411;45.656;11.740;2024-02-26T06:11:37;12.35;;;7.15;;
64816;SDS011;69411;45.656;11.740;2024-02-26T06:14:04;11.63;;;6.95;;
64816;SDS011;69411;45.656;11.740;2024-02-26T06:16:30;12.55;;;7.78;;
64816;SDS011;69411;45.656;11.740;2024-02-26T06:18:56;11.75;;;7.45;;
64816;SDS011;69411;45.656;11.740;2024-02-26T06:21:22;13.00;;;7.05;;
64816;SDS011;69411;45.656;11.740;2024-02-26T06:23:48;12.45;;;8.00;;
64816;SDS011;69411;45.656;11.740;2024-02-26T06:26:15;14.35;;;8.38;;
64816;SDS011;69411;45.656;11.740;2024-02-26T06:28:41;18.17;;;9.48;;
64816;SDS011;69411;45.656;11.740;2024-02-26T06:31:07;17.38;;;9.13;;
64816;SDS011;69411;45.656;11.740;2024-02-26T06:33:33;15.32;;;9.32;;
64816;SDS011;69411;45.656;11.740;2024-02-26T06:35:59;17.55;;;9.90;;
64816;SDS011;69411;45.656;11.740;2024-02-26T06:38:25;21.85;;;13.93;;
64816;SDS011;69411;45.656;11.740;2024-02-26T06:40:51;21.15;;;12.75;;
64816;SDS011;69411;45.656;11.740;2024-02-26T06:43:18;20.15;;;12.77;;
64816;SDS011;69411;45.656;11.740;2024-02-26T06:45:43;21.50;;;13.18;;
64816;SDS011;69411;45.656;11.740;2024-02-26T06:48:09;17.45;;;11.18;;
64816;SDS011;69411;45.656;11.740;2024-02-26T06:50:35;19.27;;;11.73;;
64816;SDS011;69411;45.656;11.740;2024-02-26T06:53:01;22.50;;;13.98;;
64816;SDS011;69411;45.656;11.740;2024-02-26T06:55:27;18.10;;;12.80;;
64816;SDS011;69411;45.656;11.740;2024-02-26T06:57:53;16.10;;;10.23;;
64816;SDS011;69411;45.656;11.740;2024-02-26T07:00:19;15.18;;;8.45;;
64816;SDS011;69411;45.656;11.740;2024-02-26T07:02:45;15.65;;;8.90;;
64816;SDS011;69411;45.656;11.740;2024-02-26T07:05:11;17.67;;;9.65;;
64816;SDS011;69411;45.656;11.740;2024-02-26T07:07:38;14.95;;;9.85;;
64816;SDS011;69411;45.656;11.740;2024-02-26T07:10:04;16.90;;;10.50;;
64816;SDS011;69411;45.656;11.740;2024-02-26T07:12:31;14.02;;;8.45;;
64816;SDS011;69411;45.656;11.740;2024-02-26T07:14:57;13.00;;;8.20;;
64816;SDS011;69411;45.656;11.740;2024-02-26T07:17:23;13.90;;;8.93;;
64816;SDS011;69411;45.656;11.740;2024-02-26T07:19:49;14.27;;;9.27;;
64816;SDS011;69411;45.656;11.740;2024-02-26T07:22:15;14.55;;;9.00;;
64816;SDS011;69411;45.656;11.740;2024-02-26T07:24:41;13.35;;;8.82;;
64816;SDS011;69411;45.656;11.740;2024-02-26T07:27:07;16.38;;;10.77;;
64816;SDS011;69411;45.656;11.740;2024-02-26T07:29:33;14.70;;;9.35;;
64816;SDS011;69411;45.656;11.740;2024-02-26T07:31:59;16.05;;;9.35;;
64816;SDS011;69411;45.656;11.740;2024-02-26T07:34:25;15.73;;;9.43;;
64816;SDS011;69411;45.656;11.740;2024-02-26T07:36:54;15.77;;;9.80;;
64816;SDS011;69411;45.656;11.740;2024-02-26T07:39:24;15.65;;;9.80;;
64816;SDS011;69411;45.656;11.740;2024-02-26T07:41:50;14.10;;;9.23;;
64816;SDS011;69411;45.656;11.740;2024-02-26T07:44:18;15.02;;;9.65;;
64816;SDS011;69411;45.656;11.740;2024-02-26T07:46:44;13.65;;;8.55;;
64816;SDS011;69411;45.656;11.740;2024-02-26T07:49:10;15.23;;;9.25;;
64816;SDS011;69411;45.656;11.740;2024-02-26T07:51:37;16.10;;;8.95;;
64816;SDS011;69411;45.656;11.740;2024-02-26T07:54:03;16.27;;;9.82;;
64816;SDS011;69411;45.656;11.740;2024-02-26T07:56:29;19.00;;;10.30;;
64816;SDS011;69411;45.656;11.740;2024-02-26T07:58:55;14.98;;;9.27;;
64816;SDS011;69411;45.656;11.740;2024-02-26T08:01:21;13.73;;;8.65;;
64816;SDS011;69411;45.656;11.740;2024-02-26T08:03:47;13.35;;;8.95;;
64816;SDS011;69411;45.656;11.740;2024-02-26T08:06:13;13.02;;;8.63;;
64816;SDS011;69411;45.656;11.740;2024-02-26T08:08:39;14.82;;;9.18;;
64816;SDS011;69411;45.656;11.740;2024-02-26T08:11:08;16.08;;;8.95;;
64816;SDS011;69411;45.656;11.740;2024-02-26T08:13:35;14.32;;;8.30;;
64816;SDS011;69411;45.656;11.740;2024-02-26T08:16:01;13.48;;;8.38;;
64816;SDS011;69411;45.656;11.740;2024-02-26T08:18:27;13.13;;;8.20;;
64816;SDS011;69411;45.656;11.740;2024-02-26T08:20:53;13.73;;;8.57;;
64816;SDS011;69411;45.656;11.740;2024-02-26T08:23:19;13.15;;;8.30;;
64816;SDS011;69411;45.656;11.740;2024-02-26T08:25:45;13.40;;;8.07;;
64816;SDS011;69411;45.656;11.740;2024-02-26T08:28:11;12.93;;;7.82;;
64816;SDS011;69411;45.656;11.740;2024-02-26T08:33:14;11.13;;;7.20;;
64816;SDS011;69411;45.656;11.740;2024-02-26T08:35:40;11.93;;;6.47;;
64816;SDS011;69411;45.656;11.740;2024-02-26T08:38:06;9.57;;;6.35;;
64816;SDS011;69411;45.656;11.740;2024-02-26T08:40:32;9.30;;;5.82;;
64816;SDS011;69411;45.656;11.740;2024-02-26T08:42:58;11.18;;;6.88;;
64816;SDS011;69411;45.656;11.740;2024-02-26T08:45:24;8.73;;;5.72;;
64816;SDS011;69411;45.656;11.740;2024-02-26T08:47:52;12.07;;;5.80;;
64816;SDS011;69411;45.656;11.740;2024-02-26T08:50:18;10.38;;;6.70;;
64816;SDS011;69411;45.656;11.740;2024-02-26T08:52:44;10.18;;;6.50;;
64816;SDS011;69411;45.656;11.740;2024-02-26T08:55:14;12.65;;;6.43;;
64816;SDS011;69411;45.656;11.740;2024-02-26T08:57:39;11.93;;;6.82;;
64816;SDS011;69411;45.656;11.740;2024-02-26T09:00:06;9.15;;;5.97;;
64816;SDS011;69411;45.656;11.740;2024-02-26T09:02:32;13.65;;;6.65;;
64816;SDS011;69411;45.656;11.740;2024-02-26T09:04:58;10.13;;;5.93;;
64816;SDS011;69411;45.656;11.740;2024-02-26T09:07:24;9.52;;;5.38;;
64816;SDS011;69411;45.656;11.740;2024-02-26T09:09:49;9.32;;;5.78;;
64816;SDS011;69411;45.656;11.740;2024-02-26T09:12:16;9.88;;;6.13;;
64816;SDS011;69411;45.656;11.740;2024-02-26T09:14:42;12.25;;;6.30;;
64816;SDS011;69411;45.656;11.740;2024-02-26T09:17:07;9.55;;;6.00;;
64816;SDS011;69411;45.656;11.740;2024-02-26T09:19:33;12.38;;;7.03;;
64816;SDS011;69411;45.656;11.740;2024-02-26T09:21:59;11.98;;;6.20;;
64816;SDS011;69411;45.656;11.740;2024-02-26T09:24:26;10.05;;;6.10;;
64816;SDS011;69411;45.656;11.740;2024-02-26T09:26:55;9.98;;;6.22;;
64816;SDS011;69411;45.656;11.740;2024-02-26T09:29:21;11.63;;;6.47;;
64816;SDS011;69411;45.656;11.740;2024-02-26T09:31:47;8.95;;;5.53;;
64816;SDS011;69411;45.656;11.740;2024-02-26T09:34:13;8.98;;;5.82;;
64816;SDS011;69411;45.656;11.740;2024-02-26T09:36:40;9.50;;;6.10;;
64816;SDS011;69411;45.656;11.740;2024-02-26T09:39:06;10.18;;;5.97;;
64816;SDS011;69411;45.656;11.740;2024-02-26T09:41:36;10.27;;;5.63;;
64816;SDS011;69411;45.656;11.740;2024-02-26T09:44:05;11.35;;;6.10;;
64816;SDS011;69411;45.656;11.740;2024-02-26T09:46:32;10.70;;;6.13;;
64816;SDS011;69411;45.656;11.740;2024-02-26T09:48:59;11.27;;;5.90;;
64816;SDS011;69411;45.656;11.740;2024-02-26T09:51:25;11.68;;;5.97;;
64816;SDS011;69411;45.656;11.740;2024-02-26T09:53:51;9.77;;;6.05;;
64816;SDS011;69411;45.656;11.740;2024-02-26T09:56:18;10.23;;;6.00;;
64816;SDS011;69411;45.656;11.740;2024-02-26T09:58:44;11.02;;;7.00;;
64816;SDS011;69411;45.656;11.740;2024-02-26T10:01:16;11.70;;;6.78;;
64816;SDS011;69411;45.656;11.740;2024-02-26T10:03:43;10.63;;;6.45;;
64816;SDS011;69411;45.656;11.740;2024-02-26T10:06:12;11.60;;;6.75;;
64816;SDS011;69411;45.656;11.740;2024-02-26T10:08:38;11.48;;;6.60;;
64816;SDS011;69411;45.656;11.740;2024-02-26T10:11:06;9.65;;;6.25;;
64816;SDS011;69411;45.656;11.740;2024-02-26T10:13:35;8.93;;;5.68;;
64816;SDS011;69411;45.656;11.740;2024-02-26T10:16:02;9.50;;;6.22;;
64816;SDS011;69411;45.656;11.740;2024-02-26T10:18:50;11.98;;;6.30;;
64816;SDS011;69411;45.656;11.740;2024-02-26T10:21:17;9.13;;;5.68;;
64816;SDS011;69411;45.656;11.740;2024-02-26T10:23:44;11.00;;;6.20;;
64816;SDS011;69411;45.656;11.740;2024-02-26T10:26:13;8.82;;;5.88;;
64816;SDS011;69411;45.656;11.740;2024-02-26T10:28:41;9.73;;;5.55;;
64816;SDS011;69411;45.656;11.740;2024-02-26T10:31:08;8.15;;;5.00;;
64816;SDS011;69411;45.656;11.740;2024-02-26T10:33:35;9.02;;;5.28;;
64816;SDS011;69411;45.656;11.740;2024-02-26T10:36:02;7.50;;;4.75;;
64816;SDS011;69411;45.656;11.740;2024-02-26T10:38:33;8.70;;;4.80;;
64816;SDS011;69411;45.656;11.740;2024-02-26T10:41:01;10.10;;;4.70;;
64816;SDS011;69411;45.656;11.740;2024-02-26T10:43:38;8.48;;;4.70;;
64816;SDS011;69411;45.656;11.740;2024-02-26T10:46:03;8.00;;;4.60;;
64816;SDS011;69411;45.656;11.740;2024-02-26T10:48:30;9.55;;;4.82;;
64816;SDS011;69411;45.656;11.740;2024-02-26T10:50:56;10.52;;;5.38;;
64816;SDS011;69411;45.656;11.740;2024-02-26T10:53:23;9.50;;;5.10;;
64816;SDS011;69411;45.656;11.740;2024-02-26T10:58:25;8.18;;;4.90;;
64816;SDS011;69411;45.656;11.740;2024-02-26T11:00:52;10.73;;;5.43;;
64816;SDS011;69411;45.656;11.740;2024-02-26T11:03:19;10.90;;;5.93;;
64816;SDS011;69411;45.656;11.740;2024-02-26T11:05:49;7.03;;;4.68;;
64816;SDS011;69411;45.656;11.740;2024-02-26T11:08:18;9.10;;;5.50;;
64816;SDS011;69411;45.656;11.740;2024-02-26T11:10:47;12.90;;;5.35;;
64816;SDS011;69411;45.656;11.740;2024-02-26T11:13:14;11.13;;;5.28;;
64816;SDS011;69411;45.656;11.740;2024-02-26T11:15:44;10.35;;;5.68;;
64816;SDS011;69411;45.656;11.740;2024-02-26T11:18:14;11.13;;;5.45;;
64816;SDS011;69411;45.656;11.740;2024-02-26T11:20:41;8.85;;;5.72;;
64816;SDS011;69411;45.656;11.740;2024-02-26T11:23:08;10.38;;;5.43;;
64816;SDS011;69411;45.656;11.740;2024-02-26T11:25:35;10.20;;;5.60;;
64816;SDS011;69411;45.656;11.740;2024-02-26T11:28:04;9.15;;;5.40;;
64816;SDS011;69411;45.656;11.740;2024-02-26T11:30:41;10.73;;;5.53;;
64816;SDS011;69411;45.656;11.740;2024-02-26T11:33:09;11.77;;;5.75;;
64816;SDS011;69411;45.656;11.740;2024-02-26T11:35:37;11.15;;;5.45;;
64816;SDS011;69411;45.656;11.740;2024-02-26T11:38:04;9.63;;;5.75;;
64816;SDS011;69411;45.656;11.740;2024-02-26T11:40:32;9.10;;;5.78;;
64816;SDS011;69411;45.656;11.740;2024-02-26T11:42:58;10.68;;;6.13;;
64816;SDS011;69411;45.656;11.740;2024-02-26T11:48:13;10.80;;;5.88;;
64816;SDS011;69411;45.656;11.740;2024-02-26T11:50:40;8.55;;;5.60;;
64816;SDS011;69411;45.656;11.740;2024-02-26T11:58:43;8.20;;;5.47;;
64816;SDS011;69411;45.656;11.740;2024-02-26T12:04:13;9.27;;;6.13;;
64816;SDS011;69411;45.656;11.740;2024-02-26T12:09:30;11.02;;;5.60;;
64816;SDS011;69411;45.656;11.740;2024-02-26T12:12:03;9.23;;;5.40;;
64816;SDS011;69411;45.656;11.740;2024-02-26T12:14:40;11.05;;;6.20;;
64816;SDS011;69411;45.656;11.740;2024-02-26T12:17:21;9.98;;;5.93;;
64816;SDS011;69411;45.656;11.740;2024-02-26T12:19:49;10.18;;;5.68;;
64816;SDS011;69411;45.656;11.740;2024-02-26T12:22:16;9.80;;;5.97;;
64816;SDS011;69411;45.656;11.740;2024-02-26T12:24:43;10.73;;;6.13;;
64816;SDS011;69411;45.656;11.740;2024-02-26T12:27:09;11.30;;;6.07;;
64816;SDS011;69411;45.656;11.740;2024-02-26T12:29:35;10.02;;;6.43;;
64816;SDS011;69411;45.656;11.740;2024-02-26T12:32:01;12.13;;;5.72;;
64816;SDS011;69411;45.656;11.740;2024-02-26T12:34:29;15.27;;;6.68;;
64816;SDS011;69411;45.656;11.740;2024-02-26T12:36:55;10.05;;;6.13;;
64816;SDS011;69411;45.656;11.740;2024-02-26T12:39:22;10.40;;;5.90;;
64816;SDS011;69411;45.656;11.740;2024-02-26T12:41:48;9.93;;;5.90;;
64816;SDS011;69411;45.656;11.740;2024-02-26T12:44:17;7.65;;;5.25;;
64816;SDS011;69411;45.656;11.740;2024-02-26T12:46:43;10.13;;;5.47;;
64816;SDS011;69411;45.656;11.740;2024-02-26T12:49:09;9.43;;;5.10;;
64816;SDS011;69411;45.656;11.740;2024-02-26T12:51:40;8.52;;;5.32;;
64816;SDS011;69411;45.656;11.740;2024-02-26T12:54:07;12.88;;;5.47;;
64816;SDS011;69411;45.656;11.740;2024-02-26T12:56:34;10.88;;;5.60;;
64816;SDS011;69411;45.656;11.740;2024-02-26T12:59:00;9.23;;;5.13;;
64816;SDS011;69411;45.656;11.740;2024-02-26T13:01:27;9.38;;;5.00;;
64816;SDS011;69411;45.656;11.740;2024-02-26T13:03:55;11.13;;;5.82;;
64816;SDS011;69411;45.656;11.740;2024-02-26T13:06:22;10.82;;;6.18;;
64816;SDS011;69411;45.656;11.740;2024-02-26T13:08:48;11.15;;;5.50;;
64816;SDS011;69411;45.656;11.740;2024-02-26T13:11:15;9.00;;;5.15;;
64816;SDS011;69411;45.656;11.740;2024-02-26T13:13:40;10.95;;;5.07;;
64816;SDS011;69411;45.656;11.740;2024-02-26T13:16:08;8.23;;;4.85;;
64816;SDS011;69411;45.656;11.740;2024-02-26T13:18:40;10.38;;;5.00;;
64816;SDS011;69411;45.656;11.740;2024-02-26T13:21:09;9.63;;;4.90;;
64816;SDS011;69411;45.656;11.740;2024-02-26T13:23:42;9.88;;;5.22;;
64816;SDS011;69411;45.656;11.740;2024-02-26T13:26:13;9.38;;;5.00;;
64816;SDS011;69411;45.656;11.740;2024-02-26T13:28:41;8.50;;;5.07;;
64816;SDS011;69411;45.656;11.740;2024-02-26T13:31:07;9.60;;;5.45;;
64816;SDS011;69411;45.656;11.740;2024-02-26T13:33:34;8.68;;;5.03;;
64816;SDS011;69411;45.656;11.740;2024-02-26T13:36:00;10.23;;;4.65;;
64816;SDS011;69411;45.656;11.740;2024-02-26T13:38:27;8.32;;;4.90;;
64816;SDS011;69411;45.656;11.740;2024-02-26T13:40:53;10.73;;;5.35;;
64816;SDS011;69411;45.656;11.740;2024-02-26T13:43:20;10.40;;;5.40;;
64816;SDS011;69411;45.656;11.740;2024-02-26T13:45:46;10.27;;;5.47;;
64816;SDS011;69411;45.656;11.740;2024-02-26T13:48:12;12.60;;;6.15;;
64816;SDS011;69411;45.656;11.740;2024-02-26T13:50:40;8.77;;;5.45;;
64816;SDS011;69411;45.656;11.740;2024-02-26T13:53:08;9.32;;;5.43;;
64816;SDS011;69411;45.656;11.740;2024-02-26T13:55:34;12.18;;;5.15;;
64816;SDS011;69411;45.656;11.740;2024-02-26T13:58:01;14.13;;;7.75;;
64816;SDS011;69411;45.656;11.740;2024-02-26T14:00:28;13.15;;;7.68;;
64816;SDS011;69411;45.656;11.740;2024-02-26T14:03:00;12.77;;;6.47;;
64816;SDS011;69411;45.656;11.740;2024-02-26T14:05:26;10.25;;;6.30;;
64816;SDS011;69411;45.656;11.740;2024-02-26T14:07:52;13.82;;;6.18;;
64816;SDS011;69411;45.656;11.740;2024-02-26T14:10:20;11.40;;;5.72;;
64816;SDS011;69411;45.656;11.740;2024-02-26T14:12:46;13.15;;;5.55;;
64816;SDS011;69411;45.656;11.740;2024-02-26T14:15:12;10.05;;;6.53;;
64816;SDS011;69411;45.656;11.740;2024-02-26T14:17:38;11.40;;;6.00;;
64816;SDS011;69411;45.656;11.740;2024-02-26T14:20:07;11.98;;;6.57;;
64816;SDS011;69411;45.656;11.740;2024-02-26T14:22:34;11.18;;;6.20;;
64816;SDS011;69411;45.656;11.740;2024-02-26T14:25:00;9.40;;;5.70;;
64816;SDS011;69411;45.656;11.740;2024-02-26T14:27:26;11.25;;;6.00;;
64816;SDS011;69411;45.656;11.740;2024-02-26T14:29:52;10.00;;;6.55;;
64816;SDS011;69411;45.656;11.740;2024-02-26T14:32:20;9.80;;;6.03;;
64816;SDS011;69411;45.656;11.740;2024-02-26T14:34:46;10.23;;;5.63;;
64816;SDS011;69411;45.656;11.740;2024-02-26T14:37:12;9.88;;;5.53;;
64816;SDS011;69411;45.656;11.740;2024-02-26T14:39:37;10.88;;;6.07;;